Time;durP1;ratioP1;P1;durP2;ratioP2;P2;SDS_P1;SDS_P2;PMS_P1;PMS_P2;Temp;Humidity;BMP_temperature;BMP_pressure;BME280_temperature;BME280_humidity;BME280_pressure;Samples;Min_cycle;Max_cycle;Signal;HPM_P1;HPM_P2
2021/08/19 00:00:50;;;;;;;2.22;2.02;;;;;;;18.32;71.19;100035.61;1684908;84;20092;-60
2021/08/19 00:03:16;;;;;;;;;;;;;;;18.29;70.87;100039.63;1681428;84;21006;-60
2021/08/19 00:05:42;;;;;;;2.72;1.50;;;;;;;18.42;70.91;100044.68;1666116;84;20435;-60
2021/08/19 00:08:10;;;;;;;2.00;1.62;;;;;;;18.45;71.39;100037.96;1638961;85;21574;-61
2021/08/19 00:10:37;;;;;;;1.85;1.77;;;;;;;18.41;70.93;100028.19;1682709;84;21501;-60
2021/08/19 00:13:06;;;;;;;2.15;2.05;;;;;;;18.29;71.47;100021.55;1640992;85;21044;-61
2021/08/19 00:15:33;;;;;;;2.60;2.00;;;;;;;18.19;72.25;100012.48;1678074;85;20995;-60
2021/08/19 00:18:00;;;;;;;1.87;1.77;;;;;;;18.15;71.94;100006.76;1635141;85;20986;-61
2021/08/19 00:20:26;;;;;;;;;;;;;;;18.05;71.20;100003.37;1676692;84;21007;-59
2021/08/19 00:22:53;;;;;;;1.87;1.40;;;;;;;17.96;71.71;100010.23;1674495;84;20447;-59
2021/08/19 00:25:21;;;;;;;2.60;1.70;;;;;;;17.89;71.47;100008.23;1655425;85;21527;-59
2021/08/19 00:27:47;;;;;;;1.60;1.27;;;;;;;17.88;71.83;100012.00;1676384;84;20998;-60
2021/08/19 00:30:13;;;;;;;2.20;1.42;;;;;;;17.98;71.95;100018.90;1675363;84;22283;-59
2021/08/19 00:32:40;;;;;;;2.60;1.67;;;;;;;18.23;70.44;100008.22;1667444;84;21586;-59
2021/08/19 00:35:08;;;;;;;;;;;;;;;18.42;70.04;100000.16;1655337;85;21076;-60
2021/08/19 00:37:36;;;;;;;3.62;1.40;;;;;;;18.43;69.16;99996.38;1666326;84;20108;-61
2021/08/19 00:40:05;;;;;;;2.27;1.82;;;;;;;18.24;69.73;100002.58;1673773;84;21007;-61
2021/08/19 00:42:33;;;;;;;2.67;1.27;;;;;;;18.15;70.08;100011.34;1681603;84;21082;-59
2021/08/19 00:45:02;;;;;;;2.42;1.20;;;;;;;18.16;70.32;100008.91;1669682;84;21048;-59
2021/08/19 00:47:29;;;;;;;1.70;1.57;;;;;;;18.27;70.32;100007.49;1654901;85;21111;-60
2021/08/19 00:50:02;;;;;;;2.05;1.77;;;;;;;18.55;69.86;100004.90;1654775;85;21076;-60
2021/08/19 00:52:30;;;;;;;1.87;1.60;;;;;;;18.67;68.15;100005.08;1650232;85;21067;-62
2021/08/19 00:55:00;;;;;;;3.10;1.87;;;;;;;18.69;68.22;100006.18;1655144;85;21574;-60
2021/08/19 00:57:27;;;;;;;2.80;1.87;;;;;;;18.61;68.23;100009.30;1680744;84;21055;-60
2021/08/19 00:59:58;;;;;;;3.25;1.80;;;;;;;18.61;68.63;100016.87;1661548;84;21084;-60
2021/08/19 01:02:25;;;;;;;3.42;1.52;;;;;;;18.62;67.05;100019.03;1643757;85;21042;-60
2021/08/19 01:04:53;;;;;;;1.12;1.02;;;;;;;18.57;67.76;100018.95;1631094;86;21107;-61
2021/08/19 01:07:19;;;;;;;1.85;1.75;;;;;;;18.73;68.30;100033.50;1637077;86;21035;-61
2021/08/19 01:09:48;;;;;;;1.50;1.47;;;;;;;18.98;67.37;100033.84;1632886;87;21053;-60
2021/08/19 01:12:15;;;;;;;1.95;1.77;;;;;;;18.94;66.93;100031.36;1644266;85;21145;-60
2021/08/19 01:14:45;;;;;;;2.92;1.57;;;;;;;18.77;67.36;100033.28;1650656;86;21078;-60
2021/08/19 01:17:14;;;;;;;1.85;1.85;;;;;;;18.55;68.61;100036.74;1634102;86;21035;-60
2021/08/19 01:19:51;;;;;;;1.80;1.67;;;;;;;18.49;69.01;100037.75;1602612;88;20996;-60
2021/08/19 01:22:20;;;;;;;1.42;1.40;;;;;;;18.35;69.40;100037.28;1646713;85;22271;-62
2021/08/19 01:24:46;;;;;;;2.08;1.72;;;;;;;18.18;70.53;100027.05;1683042;83;20991;-60
2021/08/19 01:27:16;;;;;;;;;;;;;;;18.23;70.46;100026.59;1684668;83;21069;-59
2021/08/19 01:29:48;;;;;;;2.83;2.22;;;;;;;18.28;71.16;100021.25;1684746;83;20172;-60
2021/08/19 01:32:16;;;;;;;2.80;2.52;;;;;;;18.28;71.17;100024.49;1677137;83;21042;-61
2021/08/19 01:34:44;;;;;;;1.85;1.75;;;;;;;18.37;70.88;100031.65;1655187;85;21120;-61
2021/08/19 01:37:12;;;;;;;1.75;1.62;;;;;;;18.26;70.93;100038.77;1630405;85;21077;-61
2021/08/19 01:39:40;;;;;;;1.70;1.60;;;;;;;18.12;70.72;100038.28;1634496;87;21518;-61
2021/08/19 01:42:06;;;;;;;2.42;2.22;;;;;;;18.00;71.18;100039.70;1635912;87;21000;-61
2021/08/19 01:44:33;;;;;;;2.77;2.35;;;;;;;17.78;71.21;100038.74;1640457;85;21052;-61
2021/08/19 01:47:02;;;;;;;2.52;2.22;;;;;;;17.58;72.41;100041.91;1682850;85;21001;-58
2021/08/19 01:49:30;;;;;;;3.25;1.90;;;;;;;17.35;73.29;100044.16;1662128;84;21048;-59
2021/08/19 01:52:02;;;;;;;2.55;2.35;;;;;;;17.24;73.73;100043.97;1669590;85;21585;-59
2021/08/19 01:54:29;;;;;;;3.90;2.00;;;;;;;17.29;73.31;100045.42;1673243;84;21056;-58
2021/08/19 01:56:55;;;;;;;3.20;2.00;;;;;;;17.34;73.16;100034.45;1674985;84;21048;-58
2021/08/19 01:59:26;;;;;;;3.37;2.52;;;;;;;17.50;72.55;100037.20;1679203;84;21028;-58
2021/08/19 02:01:55;;;;;;;2.70;2.08;;;;;;;17.56;72.77;100038.11;1675283;84;21076;-58
2021/08/19 02:04:24;;;;;;;3.45;3.17;;;;;;;17.40;72.47;100032.14;1663039;84;21579;-58
2021/08/19 02:06:50;;;;;;;2.50;2.17;;;;;;;17.22;73.38;100038.01;1653065;84;21551;-59
2021/08/19 02:09:18;;;;;;;2.40;2.20;;;;;;;17.22;74.07;100035.31;1655491;84;21495;-60
2021/08/19 02:11:46;;;;;;;4.95;2.27;;;;;;;17.41;74.15;100030.56;1679867;84;21089;-60
2021/08/19 02:14:12;;;;;;;2.47;2.20;;;;;;;17.53;73.68;100026.45;1690802;83;21549;-59
2021/08/19 02:16:38;;;;;;;2.02;1.92;;;;;;;17.58;73.06;100031.95;1690629;83;21561;-59
2021/08/19 02:19:05;;;;;;;2.98;2.15;;;;;;;17.64;73.14;100037.70;1683056;83;21144;-58
2021/08/19 02:21:31;;;;;;;;;;;;;;;17.68;73.04;100037.50;1690092;83;21084;-58
2021/08/19 02:23:57;;;;;;;2.22;2.02;;;;;;;17.63;73.00;100037.44;1703911;83;20155;-59
2021/08/19 02:26:23;;;;;;;2.10;1.45;;;;;;;17.59;73.82;100028.71;1689783;83;21025;-58
2021/08/19 02:28:49;;;;;;;1.72;1.62;;;;;;;17.53;74.22;100033.73;1690658;83;21120;-60
2021/08/19 02:31:16;;;;;;;;;;;;;;;17.59;74.58;100028.17;1692815;83;21005;-60
2021/08/19 02:33:42;;;;;;;2.08;1.98;;;;;;;17.66;74.09;100032.89;1702412;83;20140;-60
2021/08/19 02:36:09;;;;;;;2.42;2.25;;;;;;;17.65;74.36;100027.73;1696856;83;21514;-61
2021/08/19 02:38:36;;;;;;;5.80;2.15;;;;;;;17.61;74.32;100034.17;1683295;83;21088;-61
2021/08/19 02:41:02;;;;;;;;;;;;;;;17.54;74.26;100036.70;1692380;83;21008;-60
2021/08/19 02:43:28;;;;;;;4.60;2.30;;;;;;;17.60;74.64;100043.84;1684738;83;20152;-61
2021/08/19 02:45:54;;;;;;;2.20;2.10;;;;;;;17.65;74.54;100038.00;1691065;83;21015;-60
2021/08/19 02:48:20;;;;;;;3.50;2.05;;;;;;;17.57;74.90;100041.61;1689630;83;21060;-61
2021/08/19 02:50:46;;;;;;;2.52;1.87;;;;;;;17.37;75.61;100045.57;1697589;83;21170;-60
2021/08/19 02:53:12;;;;;;;;;;;;;;;17.22;76.19;100050.67;1690179;83;21135;-61
2021/08/19 02:55:39;;;;;;;2.47;2.30;;;;;;;17.09;76.47;100053.09;1684173;83;20485;-61
2021/08/19 02:58:05;;;;;;;1.82;1.20;;;;;;;16.91;77.80;100049.52;1683793;83;21087;-61
2021/08/19 03:00:32;;;;;;;2.87;1.90;;;;;;;16.87;78.33;100053.71;1691993;83;21020;-61
2021/08/19 03:02:58;;;;;;;2.77;1.72;;;;;;;16.90;78.04;100058.63;1703196;83;20989;-60
2021/08/19 03:05:25;;;;;;;1.37;1.27;;;;;;;17.02;77.01;100057.25;1677395;83;21048;-61
2021/08/19 03:07:51;;;;;;;1.75;1.65;;;;;;;17.11;76.14;100059.88;1678174;83;21041;-61
2021/08/19 03:10:17;;;;;;;2.85;1.75;;;;;;;17.12;74.58;100057.98;1683065;83;21177;-60
2021/08/19 03:12:44;;;;;;;4.30;2.50;;;;;;;17.06;75.21;100053.56;1694654;83;21547;-60
2021/08/19 03:15:11;;;;;;;3.33;2.37;;;;;;;17.01;75.91;100052.10;1681365;83;20998;-59
2021/08/19 03:17:37;;;;;;;1.30;1.22;;;;;;;17.06;75.71;100050.33;1689221;83;21057;-59
2021/08/19 03:20:07;;;;;;;5.70;1.27;;;;;;;17.19;74.68;100049.25;1678587;83;21108;-60
2021/08/19 03:22:34;;;;;;;1.40;1.30;;;;;;;17.21;73.02;100056.56;1680988;83;21012;-60
2021/08/19 03:25:02;;;;;;;1.52;1.40;;;;;;;17.15;73.21;100058.87;1683354;83;21108;-60
2021/08/19 03:27:31;;;;;;;2.25;1.75;;;;;;;17.04;73.21;100069.14;1689624;83;21570;-59
2021/08/19 03:29:56;;;;;;;2.77;1.45;;;;;;;16.97;73.45;100073.83;1676501;83;21132;-59
2021/08/19 03:32:22;;;;;;;1.60;1.50;;;;;;;17.01;73.72;100081.72;1683423;83;21131;-59
2021/08/19 03:34:50;;;;;;;2.40;1.52;;;;;;;17.04;73.86;100081.26;1667431;83;21010;-59
2021/08/19 03:37:16;;;;;;;;;;;;;;;17.04;74.33;100081.26;1691149;83;21625;-59
2021/08/19 03:39:42;;;;;;;2.90;1.35;;;;;;;17.01;73.94;100078.52;1693280;83;20168;-58
2021/08/19 03:42:10;;;;;;;1.67;1.45;;;;;;;16.92;73.30;100082.09;1686245;83;21079;-59
2021/08/19 03:44:37;;;;;;;2.87;1.62;;;;;;;16.85;73.46;100073.86;1688810;83;21103;-59
2021/08/19 03:47:05;;;;;;;;;;;;;;;16.81;73.73;100076.70;1690614;83;21071;-59
2021/08/19 03:49:32;;;;;;;1.85;1.75;;;;;;;16.83;73.77;100074.09;1678028;83;20142;-58
2021/08/19 03:51:58;;;;;;;2.17;1.37;;;;;;;16.86;73.67;100074.16;1672636;83;21101;-59
2021/08/19 03:54:25;;;;;;;1.62;1.45;;;;;;;16.87;74.12;100081.17;1675880;83;21061;-60
2021/08/19 03:56:52;;;;;;;3.15;1.70;;;;;;;16.88;74.60;100085.52;1663394;84;21017;-59
2021/08/19 03:59:19;;;;;;;3.47;2.17;;;;;;;16.78;74.49;100077.97;1682545;83;21080;-58
2021/08/19 04:01:46;;;;;;;2.70;1.70;;;;;;;16.71;74.26;100075.42;1608177;86;21031;-60
2021/08/19 04:04:13;;;;;;;2.45;1.60;;;;;;;16.69;74.31;100074.84;1683170;83;21097;-60
2021/08/19 04:06:39;;;;;;;1.72;1.55;;;;;;;16.68;73.88;100080.45;1686008;83;20998;-59
2021/08/19 04:09:06;;;;;;;7.50;1.72;;;;;;;16.70;72.75;100087.77;1685769;83;21033;-59
2021/08/19 04:11:32;;;;;;;2.55;1.55;;;;;;;16.74;73.25;100088.92;1688859;83;21545;-60
2021/08/19 04:14:00;;;;;;;3.02;1.47;;;;;;;16.69;73.41;100084.80;1606754;87;21071;-60
2021/08/19 04:16:26;;;;;;;1.72;1.62;;;;;;;16.66;73.46;100081.22;1687630;83;21025;-59
2021/08/19 04:18:54;;;;;;;1.98;1.52;;;;;;;16.69;73.29;100086.14;1683410;83;21037;-60
2021/08/19 04:21:21;;;;;;;2.45;1.67;;;;;;;16.70;73.90;100088.58;1680694;83;21146;-60
2021/08/19 04:23:48;;;;;;;1.82;1.60;;;;;;;16.69;72.57;100091.52;1691702;83;21016;-60
2021/08/19 04:26:16;;;;;;;1.50;0.98;;;;;;;16.65;72.84;100094.37;1694497;83;21567;-60
2021/08/19 04:28:43;;;;;;;1.98;1.87;;;;;;;16.57;72.33;100086.66;1694379;83;21062;-60
2021/08/19 04:31:09;;;;;;;1.32;1.32;;;;;;;16.52;72.67;100092.22;1694423;83;21073;-60
2021/08/19 04:33:35;;;;;;;;;;;;;;;16.52;72.69;100084.68;1674598;83;21100;-60
2021/08/19 04:36:02;;;;;;;3.42;1.50;;;;;;;16.51;71.67;100087.87;1685711;83;20142;-60
2021/08/19 04:38:29;;;;;;;2.72;1.65;;;;;;;16.48;72.35;100093.74;1688912;83;21056;-60
2021/08/19 04:40:56;;;;;;;1.50;1.40;;;;;;;16.54;71.81;100094.68;1688209;83;21697;-59
2021/08/19 04:43:22;;;;;;;;;;;;;;;16.63;71.01;100101.86;1679026;83;21092;-60
2021/08/19 04:45:49;;;;;;;2.63;1.60;;;;;;;16.63;70.33;100094.63;1682268;83;20193;-60
2021/08/19 04:48:15;;;;;;;1.45;1.35;;;;;;;16.57;70.24;100098.77;1679878;83;21330;-60
2021/08/19 04:50:41;;;;;;;2.15;1.22;;;;;;;16.65;70.60;100092.52;1690627;83;21073;-60
2021/08/19 04:53:08;;;;;;;3.12;1.30;;;;;;;16.81;71.30;100088.28;1693708;83;21064;-59
2021/08/19 04:55:36;;;;;;;2.65;1.32;;;;;;;16.97;71.34;100094.02;1678301;83;21037;-62
2021/08/19 04:58:03;;;;;;;2.25;1.62;;;;;;;17.16;71.12;100099.57;1692453;83;21010;-60
2021/08/19 05:00:30;;;;;;;1.37;1.27;;;;;;;17.34;71.09;100096.41;1679989;83;21057;-59
2021/08/19 05:02:56;;;;;;;2.08;1.75;;;;;;;17.49;70.66;100098.87;1672520;83;21135;-59
2021/08/19 05:05:23;;;;;;;2.55;1.45;;;;;;;17.66;68.09;100099.45;1678797;83;21041;-60
2021/08/19 05:07:51;;;;;;;5.12;2.05;;;;;;;17.67;68.19;100099.77;1695188;83;21076;-61
2021/08/19 05:10:17;;;;;;;5.75;2.17;;;;;;;17.65;68.62;100098.65;1682479;83;21029;-60
2021/08/19 05:12:43;;;;;;;;;;;;;;;17.65;69.54;100091.91;1695643;83;21079;-60
2021/08/19 05:15:10;;;;;;;6.08;2.25;;;;;;;17.78;68.35;100088.61;1692037;83;20494;-59
2021/08/19 05:17:37;;;;;;;4.08;3.15;;;;;;;17.73;67.84;100088.55;1686472;83;21363;-59
2021/08/19 05:20:05;;;;;;;2.00;1.72;;;;;;;17.65;68.53;100087.03;1690440;83;21574;-61
2021/08/19 05:22:31;;;;;;;2.80;2.27;;;;;;;17.74;69.87;100086.12;1697669;83;21111;-61
2021/08/19 05:24:59;;;;;;;4.40;1.90;;;;;;;17.89;68.18;100087.26;1683259;83;21087;-62
2021/08/19 05:27:26;;;;;;;3.83;2.35;;;;;;;18.07;67.70;100092.95;1687840;83;21139;-58
2021/08/19 05:29:52;;;;;;;2.60;2.40;;;;;;;18.37;66.52;100093.16;1692760;83;21491;-59
2021/08/19 05:32:19;;;;;;;2.37;1.85;;;;;;;18.38;66.11;100090.73;1696255;83;21028;-60
2021/08/19 05:34:46;;;;;;;2.10;1.90;;;;;;;18.37;66.34;100099.91;1700745;83;21080;-59
2021/08/19 05:37:14;;;;;;;2.05;1.42;;;;;;;18.38;65.91;100097.48;1695583;83;21591;-59
2021/08/19 05:39:41;;;;;;;1.80;1.70;;;;;;;18.48;66.52;100094.95;1682337;83;21100;-60
2021/08/19 05:42:07;;;;;;;3.08;1.75;;;;;;;18.60;65.31;100102.15;1684121;83;21606;-60
2021/08/19 05:44:33;;;;;;;2.12;1.80;;;;;;;18.64;66.15;100098.69;1689679;83;21560;-58
2021/08/19 05:47:05;;;;;;;3.62;2.45;;;;;;;18.68;66.02;100101.72;1681245;83;21077;-59
2021/08/19 05:49:35;;;;;;;2.72;2.45;;;;;;;18.70;66.65;100103.63;1695382;83;21088;-60
2021/08/19 05:52:04;;;;;;;3.22;3.02;;;;;;;18.72;67.57;100097.98;1680808;83;21606;-59
2021/08/19 05:54:31;;;;;;;4.08;2.83;;;;;;;18.84;67.52;100094.16;1689457;83;21067;-60
2021/08/19 05:56:56;;;;;;;;;;;;;;;19.02;66.84;100090.88;1695833;83;21035;-59
2021/08/19 05:59:22;;;;;;;7.20;2.98;;;;;;;19.26;65.94;100084.70;1697722;83;20430;-58
2021/08/19 06:01:49;;;;;;;4.78;2.62;;;;;;;19.47;64.65;100085.74;1692067;83;21028;-64
2021/08/19 06:04:16;;;;;;;3.30;2.55;;;;;;;19.60;64.66;100085.34;1684011;83;21555;-63
2021/08/19 06:06:45;;;;;;;3.90;2.92;;;;;;;19.57;64.66;100079.62;1676996;83;21071;-62
2021/08/19 06:09:14;;;;;;;7.45;2.90;;;;;;;19.53;64.82;100080.66;1680583;83;21064;-63
2021/08/19 06:11:42;;;;;;;3.15;2.30;;;;;;;19.60;64.31;100081.83;1675497;83;20977;-59
2021/08/19 06:14:10;;;;;;;2.62;2.42;;;;;;;19.74;64.30;100090.38;1684556;83;21076;-69
2021/08/19 06:16:36;;;;;;;3.10;2.45;;;;;;;19.79;63.94;100092.59;1675671;83;21110;-71
2021/08/19 06:19:03;;;;;;;3.12;2.83;;;;;;;19.77;64.29;100085.82;1687587;83;21116;-70
2021/08/19 06:21:29;;;;;;;4.67;3.22;;;;;;;19.83;63.98;100079.38;1688061;83;21108;-63
2021/08/19 06:23:57;;;;;;;2.50;2.20;;;;;;;19.88;63.62;100079.98;1670064;83;21052;-64
2021/08/19 06:26:26;;;;;;;4.25;3.17;;;;;;;19.93;63.72;100092.17;1686009;83;21105;-64
2021/08/19 06:28:53;;;;;;;2.80;2.60;;;;;;;20.02;63.26;100090.12;1683697;83;21081;-63
2021/08/19 06:31:20;;;;;;;2.85;2.65;;;;;;;20.09;62.90;100085.03;1653773;84;21483;-64
2021/08/19 06:33:47;;;;;;;2.98;2.70;;;;;;;20.08;63.00;100085.58;1671386;83;21562;-64
2021/08/19 06:36:14;;;;;;;2.90;2.67;;;;;;;20.05;63.95;100087.98;1688829;83;21025;-63
2021/08/19 06:38:40;;;;;;;2.80;2.40;;;;;;;20.17;63.59;100089.96;1681390;83;21729;-67
2021/08/19 06:41:06;;;;;;;;;;;;;;;20.29;62.84;100087.91;1683435;83;21028;-65
2021/08/19 06:43:32;;;;;;;3.30;2.87;;;;;;;20.26;62.48;100095.18;1683468;83;20169;-63
2021/08/19 06:45:58;;;;;;;2.12;2.02;;;;;;;20.11;63.05;100108.59;1680070;82;21638;-64
2021/08/19 06:48:25;;;;;;;2.17;1.98;;;;;;;20.00;63.33;100105.80;1671482;85;21016;-64
2021/08/19 06:50:51;;;;;;;2.00;1.90;;;;;;;19.97;63.67;100106.30;1687686;83;21148;-63
2021/08/19 06:53:17;;;;;;;;;;;;;;;19.98;63.47;100105.76;1694308;83;21089;-63
2021/08/19 06:55:44;;;;;;;3.90;2.60;;;;;;;20.05;64.18;100098.80;1692191;83;20166;-63
2021/08/19 06:58:10;;;;;;;5.25;3.05;;;;;;;20.06;63.36;100103.12;1686187;83;21112;-63
2021/08/19 07:00:36;;;;;;;;;;;;;;;20.08;63.06;100096.91;1684348;83;21523;-63
2021/08/19 07:03:02;;;;;;;3.87;3.57;;;;;;;20.01;63.25;100101.20;1674454;83;20180;-65
2021/08/19 07:05:29;;;;;;;3.27;2.45;;;;;;;19.94;64.03;100103.30;1681612;83;21118;-64
2021/08/19 07:07:59;;;;;;;3.08;2.35;;;;;;;20.03;63.45;100095.80;1687103;83;21067;-64
2021/08/19 07:10:23;;;;;;;2.67;2.12;;;;;;;20.15;62.88;100092.92;1702120;83;21051;-65
2021/08/19 07:12:50;;;;;;;2.95;2.70;;;;;;;20.25;62.77;100091.37;1689437;83;21043;-63
2021/08/19 07:15:16;;;;;;;;;;;;;;;20.32;62.23;100099.55;1690846;83;21037;-64
2021/08/19 07:19:45;;;;;;;3.60;3.08;;;;;;;20.57;60.99;100094.07;1798839;77;23618;-63
2021/08/19 07:22:13;;;;;;;3.58;2.33;;;;;;;20.56;60.31;100086.47;1767322;78;22108;-64
2021/08/19 07:24:38;;;;;;;;;;;;;;;20.56;60.82;100087.82;1731788;82;21266;-64
2021/08/19 07:27:05;;;;;;;3.08;2.77;;;;;;;20.60;60.49;100086.25;1728350;82;20183;-64
2021/08/19 07:29:31;;;;;;;2.70;2.27;;;;;;;20.59;60.11;100089.21;1729072;83;21033;-66
2021/08/19 07:31:59;;;;;;;2.47;2.27;;;;;;;20.75;59.13;100082.02;1695116;84;21644;-67
2021/08/19 07:34:25;;;;;;;2.75;2.08;;;;;;;20.95;58.98;100078.06;1680045;83;21329;-64
2021/08/19 07:36:53;;;;;;;2.42;2.33;;;;;;;21.08;59.21;100074.06;1707411;83;21128;-65
2021/08/19 07:39:19;;;;;;;2.10;1.90;;;;;;;21.16;58.82;100076.25;1675738;84;21050;-66
2021/08/19 07:41:45;;;;;;;;;;;;;;;21.27;58.95;100084.44;1707650;83;21101;-64
2021/08/19 07:44:12;;;;;;;2.15;2.05;;;;;;;21.41;58.13;100083.39;1698035;83;20186;-66
2021/08/19 07:46:38;;;;;;;2.08;1.98;;;;;;;21.38;58.53;100089.62;1653679;85;21191;-65
2021/08/19 07:49:04;;;;;;;;;;;;;;;21.45;57.92;100095.36;1651301;85;21171;-64
2021/08/19 07:51:31;;;;;;;4.25;2.47;;;;;;;21.50;57.42;100086.70;1631570;86;20566;-61
2021/08/19 07:53:58;;;;;;;2.42;2.25;;;;;;;21.49;57.52;100089.16;1627855;86;21204;-61
2021/08/19 07:56:24;;;;;;;3.62;3.20;;;;;;;21.44;57.05;100091.84;1641798;86;21591;-61
2021/08/19 07:58:51;;;;;;;3.55;2.40;;;;;;;21.33;57.81;100093.66;1629594;86;21051;-61
2021/08/19 08:01:19;;;;;;;2.67;2.22;;;;;;;21.34;58.46;100097.18;1630594;86;21149;-62
2021/08/19 08:03:45;;;;;;;2.80;2.65;;;;;;;21.46;57.88;100095.09;1617857;87;21034;-63
2021/08/19 08:06:12;;;;;;;1.95;1.85;;;;;;;21.53;57.69;100092.12;1638558;86;21132;-56
2021/08/19 08:08:39;;;;;;;2.47;2.27;;;;;;;21.52;57.70;100094.02;1623429;86;21067;-58
2021/08/19 08:11:06;;;;;;;2.22;2.02;;;;;;;21.46;56.94;100096.45;1632873;85;21046;-57
2021/08/19 08:13:34;;;;;;;2.10;2.00;;;;;;;21.39;57.18;100094.50;1685219;84;21070;-58
2021/08/19 08:16:00;;;;;;;2.05;1.95;;;;;;;21.43;57.01;100092.88;1682410;84;21025;-57
2021/08/19 08:18:25;;;;;;;;;;;;;;;21.44;56.54;100090.48;1683181;84;21105;-57
2021/08/19 08:20:57;;;;;;;5.45;2.75;;;;;;;21.44;57.01;100098.62;1666326;85;20158;-56
2021/08/19 08:23:22;;;;;;;2.37;2.25;;;;;;;21.43;56.93;100098.30;1660406;85;21038;-56
2021/08/19 08:25:50;;;;;;;3.62;2.62;;;;;;;21.54;57.69;100087.78;1656007;85;21015;-59
2021/08/19 08:28:21;;;;;;;2.40;2.20;;;;;;;21.74;56.54;100078.09;1649427;86;21146;-60
2021/08/19 08:30:51;;;;;;;6.15;2.92;;;;;;;21.86;55.42;100085.96;1660998;86;21148;-61
2021/08/19 08:33:21;;;;;;;3.42;2.60;;;;;;;21.94;54.68;100091.68;1658964;85;21080;-61
2021/08/19 08:35:48;;;;;;;3.25;2.60;;;;;;;21.85;53.89;100089.23;1615538;87;21106;-61
2021/08/19 08:38:17;;;;;;;4.60;2.42;;;;;;;21.73;54.14;100084.58;1606616;87;21628;-61
2021/08/19 08:40:48;;;;;;;3.95;2.62;;;;;;;21.69;53.93;100084.30;1615718;89;21134;-61
2021/08/19 08:43:20;;;;;;;5.12;2.35;;;;;;;21.64;53.83;100082.92;1617330;87;21093;-61
2021/08/19 08:45:54;;;;;;;2.90;2.42;;;;;;;21.62;53.85;100078.31;1645454;86;21518;-61
2021/08/19 08:48:24;;;;;;;1.95;1.80;;;;;;;21.61;53.41;100080.77;1656582;86;21116;-62
2021/08/19 08:50:54;;;;;;;3.80;2.80;;;;;;;21.53;54.24;100080.75;1646013;86;20983;-60
2021/08/19 08:53:22;;;;;;;3.77;3.40;;;;;;;21.49;53.59;100083.73;1646908;86;21031;-63
2021/08/19 08:55:49;;;;;;;2.47;2.27;;;;;;;21.54;52.96;100084.27;1653068;86;21306;-61
2021/08/19 08:58:18;;;;;;;2.37;2.17;;;;;;;21.59;52.51;100078.87;1649148;85;21046;-63
2021/08/19 09:00:46;;;;;;;3.92;2.45;;;;;;;21.64;52.41;100082.12;1661777;85;21573;-61
2021/08/19 09:03:17;;;;;;;3.00;2.45;;;;;;;21.59;51.06;100073.44;1647106;86;21162;-62
2021/08/19 09:05:47;;;;;;;3.05;2.45;;;;;;;21.48;51.72;100073.14;1648230;86;21066;-63
2021/08/19 09:08:18;;;;;;;2.98;2.65;;;;;;;21.43;51.21;100067.13;1650218;86;21035;-61
2021/08/19 09:10:47;;;;;;;3.85;3.10;;;;;;;21.43;50.80;100065.77;1653383;86;21079;-62
2021/08/19 09:13:20;;;;;;;3.92;3.58;;;;;;;21.41;51.61;100054.37;1632644;86;21007;-61
2021/08/19 09:15:49;;;;;;;2.98;2.75;;;;;;;21.39;51.95;100054.63;1617330;88;21083;-62
2021/08/19 09:18:37;;;;;;;3.22;3.02;;;;;;;21.33;51.33;100051.64;1622831;86;21577;-61
2021/08/19 09:21:19;;;;;;;4.33;3.17;;;;;;;21.26;51.89;100054.33;1641735;86;21288;-62
2021/08/19 09:24:10;;;;;;;4.78;3.65;;;;;;;21.15;51.02;100051.60;1654188;86;21098;-63
2021/08/19 09:26:36;;;;;;;3.95;3.52;;;;;;;21.02;51.51;100042.61;1659668;85;21511;-63
2021/08/19 09:29:22;;;;;;;;;;;;;;;21.00;51.41;100042.88;1669093;84;21480;-61
2021/08/19 09:31:55;;;;;;;3.95;3.42;;;;;;;21.03;49.58;100030.67;1662886;85;20200;-62
2021/08/19 09:34:23;;;;;;;5.58;2.87;;;;;;;20.96;50.15;100030.94;1655317;85;21472;-61
2021/08/19 09:37:14;;;;;;;2.85;2.52;;;;;;;21.02;50.32;100039.91;1650150;85;21033;-61
2021/08/19 09:39:55;;;;;;;4.35;3.30;;;;;;;21.10;50.18;100043.45;1609901;87;21010;-61
2021/08/19 09:42:38;;;;;;;2.50;2.35;;;;;;;21.20;48.49;100043.47;1649120;85;21055;-60
2021/08/19 09:45:21;;;;;;;6.08;2.55;;;;;;;21.34;48.52;100038.89;1649178;85;21025;-62
2021/08/19 09:47:52;;;;;;;2.98;2.50;;;;;;;21.44;48.42;100040.33;1664668;85;21034;-62
2021/08/19 09:50:22;;;;;;;4.03;2.52;;;;;;;21.52;47.60;100034.92;1645594;85;21109;-62
2021/08/19 09:52:53;;;;;;;3.60;3.12;;;;;;;21.58;48.61;100042.77;1648857;85;21045;-60
2021/08/19 09:55:27;;;;;;;2.85;2.42;;;;;;;21.65;47.36;100043.88;1650001;85;20985;-62
2021/08/19 09:57:55;;;;;;;3.62;3.25;;;;;;;21.64;46.98;100040.88;1667760;84;21001;-63
2021/08/19 10:00:38;;;;;;;2.62;2.42;;;;;;;21.64;47.38;100042.79;1651300;85;20967;-61
2021/08/19 10:03:04;;;;;;;2.67;2.12;;;;;;;21.68;46.85;100037.94;1651307;86;21006;-61
2021/08/19 10:05:30;;;;;;;2.62;2.42;;;;;;;21.72;46.72;100044.99;1649414;87;20991;-61
2021/08/19 10:07:59;;;;;;;3.67;2.80;;;;;;;21.72;46.20;100030.87;1672941;84;21633;-61
2021/08/19 10:10:30;;;;;;;5.08;2.58;;;;;;;21.70;45.04;100031.69;1642828;86;21005;-64
2021/08/19 10:13:03;;;;;;;2.70;2.37;;;;;;;21.68;44.26;100043.36;1642121;86;21048;-61
2021/08/19 10:15:34;;;;;;;2.08;1.98;;;;;;;21.67;44.88;100038.20;1624932;87;21056;-61
2021/08/19 10:18:02;;;;;;;3.45;2.58;;;;;;;21.62;45.24;100039.53;1636759;86;21158;-62
2021/08/19 10:20:42;;;;;;;2.98;2.58;;;;;;;21.66;46.02;100033.84;1620787;87;21038;-60
2021/08/19 10:23:10;;;;;;;3.27;2.95;;;;;;;21.74;46.79;100024.64;1650192;85;21066;-63
2021/08/19 10:25:37;;;;;;;3.60;3.30;;;;;;;21.83;47.01;100026.80;1664628;85;21069;-64
2021/08/19 10:28:21;;;;;;;4.80;3.20;;;;;;;21.90;47.30;100030.06;1667262;85;20986;-61
2021/08/19 10:30:55;;;;;;;4.15;3.75;;;;;;;21.89;45.86;100027.91;1661110;85;21017;-61
2021/08/19 10:33:41;;;;;;;3.10;2.83;;;;;;;21.83;46.39;100028.16;1664435;85;20985;-62
2021/08/19 10:36:16;;;;;;;3.30;2.98;;;;;;;21.69;47.16;100027.34;1643754;85;21067;-62
2021/08/19 10:38:42;;;;;;;2.77;2.58;;;;;;;21.66;47.93;100033.32;1664753;84;21117;-58
2021/08/19 10:41:35;;;;;;;2.67;2.42;;;;;;;21.73;47.78;100029.78;1679771;84;20978;-59
2021/08/19 10:44:06;;;;;;;3.45;3.15;;;;;;;21.83;47.11;100025.45;1615962;87;22117;-54
2021/08/19 10:46:45;;;;;;;3.75;2.33;;;;;;;21.88;46.84;100030.33;1582571;90;21084;-60
2021/08/19 10:49:34;;;;;;;2.85;2.27;;;;;;;21.93;45.90;100027.63;1607477;88;21086;-59
2021/08/19 10:52:27;;;;;;;2.72;2.22;;;;;;;22.00;46.30;100026.02;1595201;89;20989;-58
2021/08/19 10:55:12;;;;;;;2.42;2.22;;;;;;;22.04;44.74;100023.55;1614797;87;21480;-57
2021/08/19 10:57:55;;;;;;;2.05;1.75;;;;;;;22.04;43.81;100018.11;1623341;88;21010;-60
2021/08/19 11:00:40;;;;;;;2.92;1.70;;;;;;;22.12;43.10;100017.59;1598989;88;21010;-58
2021/08/19 11:03:06;;;;;;;2.40;2.20;;;;;;;22.26;43.05;100018.66;1622122;87;21541;-59
2021/08/19 11:05:38;;;;;;;4.47;2.30;;;;;;;22.33;43.67;100023.83;1625191;87;21491;-57
2021/08/19 11:08:07;;;;;;;3.52;2.65;;;;;;;22.30;44.16;100029.80;1624240;87;21013;-62
2021/08/19 11:10:37;;;;;;;2.87;2.27;;;;;;;22.28;45.10;100031.45;1624239;88;21030;-60
2021/08/19 11:13:10;;;;;;;3.12;2.42;;;;;;;22.37;45.19;100033.59;1612136;86;21155;-59
2021/08/19 11:15:47;;;;;;;5.58;2.67;;;;;;;22.40;43.39;100031.70;1613074;88;21077;-60
2021/08/19 11:18:28;;;;;;;5.58;2.95;;;;;;;22.34;44.14;100034.97;1638759;86;21094;-58
2021/08/19 11:20:55;;;;;;;4.00;2.83;;;;;;;22.29;44.30;100028.98;1629133;86;21604;-58
2021/08/19 11:23:31;;;;;;;3.10;2.90;;;;;;;22.02;45.27;99995.87;1637181;87;21016;-59
2021/08/19 11:26:11;;;;;;;5.67;2.80;;;;;;;22.31;44.89;100038.22;1637702;86;21020;-57
2021/08/19 11:28:43;;;;;;;2.65;2.55;;;;;;;22.28;44.87;100041.47;1638095;86;20986;-59
2021/08/19 11:31:21;;;;;;;3.08;2.83;;;;;;;22.21;44.89;100039.02;1637751;87;21069;-59
2021/08/19 11:34:00;;;;;;;4.47;2.83;;;;;;;22.18;45.42;100020.55;1628043;87;21106;-58
2021/08/19 11:36:29;;;;;;;3.98;2.52;;;;;;;22.23;45.87;100021.91;1582699;89;21136;-59
2021/08/19 11:39:06;;;;;;;3.52;3.22;;;;;;;22.30;46.03;100026.56;1610343;88;21034;-56
2021/08/19 11:41:35;;;;;;;3.65;2.72;;;;;;;22.38;45.87;100024.35;1610460;88;21037;-57